SAS47D LIRN-EKCH
Flight info
| Callsign | SAS47D |
|---|---|
| Flight time | N/A |
| Altitude | 38000 |
| Route | BEDPI DCT MOLUX DCT XAMIT DCT SIMBA DCT RUDNO DCT ARMUT DCT MAG DCT BKD/N0444F390 DCT NOBRI/N0440F380 M726 ROSOK Q296 MONAK |
| Aircraft | A20N/M-SDE2E3FGHIRWXY/LB1 |
Departure
| Time | N/A |
|---|---|
| Airport | Naples International Airport (LIRN) |
Arrival
| Time | 2026-05-07 15:08 |
|---|---|
| Airport | Copenhagen Kastrup Airport (EKCH) |
| Time | Latitude | Longitude | Altitude | Speed | Heading |
|---|---|---|---|---|---|
| 2026-05-07 14:49 | 54.20598 | 12.07436 | 29603 ft | 442 kts | 16° |
| 2026-05-07 14:49 | 54.23523 | 12.08958 | 29040 ft | 436 kts | 16° |
| 2026-05-07 14:50 | 54.26410 | 12.10463 | 28490 ft | 430 kts | 16° |
| 2026-05-07 14:50 | 54.29257 | 12.11946 | 27939 ft | 425 kts | 16° |
| 2026-05-07 14:50 | 54.32072 | 12.13415 | 27385 ft | 420 kts | 15° |
| 2026-05-07 14:50 | 54.34860 | 12.14872 | 26854 ft | 416 kts | 15° |
| 2026-05-07 14:51 | 54.37619 | 12.16314 | 26318 ft | 412 kts | 15° |
| 2026-05-07 14:51 | 54.40348 | 12.17746 | 25788 ft | 409 kts | 15° |
| 2026-05-07 14:51 | 54.43061 | 12.19169 | 25248 ft | 406 kts | 15° |
| 2026-05-07 14:51 | 54.45753 | 12.20582 | 24729 ft | 403 kts | 15° |
| 2026-05-07 14:52 | 54.48434 | 12.21992 | 24203 ft | 400 kts | 15° |
| 2026-05-07 14:52 | 54.51086 | 12.23388 | 23662 ft | 398 kts | 15° |
| 2026-05-07 14:52 | 54.53728 | 12.24781 | 23090 ft | 395 kts | 15° |
| 2026-05-07 14:52 | 54.56307 | 12.26142 | 22584 ft | 390 kts | 15° |
| 2026-05-07 14:53 | 54.58890 | 12.27501 | 22057 ft | 386 kts | 14° |
| 2026-05-07 14:53 | 54.61495 | 12.28459 | 21542 ft | 380 kts | 6° |
| 2026-05-07 14:53 | 54.64115 | 12.28815 | 21032 ft | 376 kts | 1° |
| 2026-05-07 14:53 | 54.66715 | 12.29011 | 20507 ft | 373 kts | 1° |
| 2026-05-07 14:54 | 54.69307 | 12.29232 | 20006 ft | 370 kts | 1° |
| 2026-05-07 14:54 | 54.71873 | 12.29454 | 19502 ft | 368 kts | 1° |
| 2026-05-07 14:54 | 54.73563 | 12.29598 | 19159 ft | 366 kts | 1° |
| 2026-05-07 14:54 | 54.76101 | 12.29814 | 18653 ft | 364 kts | 1° |
| 2026-05-07 14:55 | 54.78627 | 12.30026 | 18110 ft | 362 kts | 1° |
| 2026-05-07 14:55 | 54.81133 | 12.30235 | 17603 ft | 359 kts | 1° |
| 2026-05-07 14:55 | 54.83612 | 12.30443 | 17102 ft | 355 kts | 1° |
| 2026-05-07 14:55 | 54.86066 | 12.30648 | 16597 ft | 352 kts | 1° |
| 2026-05-07 14:56 | 54.88508 | 12.30851 | 16112 ft | 348 kts | 2° |
| 2026-05-07 14:56 | 54.90919 | 12.31052 | 15625 ft | 346 kts | 1° |
| 2026-05-07 14:56 | 54.93320 | 12.31048 | 15157 ft | 357 kts | 356° |
| 2026-05-07 14:56 | 54.95810 | 12.30750 | 14698 ft | 358 kts | 355° |
| 2026-05-07 14:57 | 54.98283 | 12.30417 | 14229 ft | 354 kts | 355° |
| 2026-05-07 14:57 | 55.00727 | 12.30101 | 13768 ft | 350 kts | 355° |
| 2026-05-07 14:57 | 55.03145 | 12.29777 | 13255 ft | 346 kts | 355° |
| 2026-05-07 14:57 | 55.05533 | 12.29442 | 12750 ft | 343 kts | 355° |
| 2026-05-07 14:58 | 55.07914 | 12.29094 | 12305 ft | 341 kts | 355° |
| 2026-05-07 14:58 | 55.10272 | 12.28741 | 11818 ft | 339 kts | 355° |
| 2026-05-07 14:58 | 55.12613 | 12.28386 | 11281 ft | 337 kts | 355° |
| 2026-05-07 14:58 | 55.14918 | 12.28134 | 10773 ft | 334 kts | 0° |
| 2026-05-07 14:59 | 55.17193 | 12.28334 | 10447 ft | 317 kts | 5° |
| 2026-05-07 14:59 | 55.19324 | 12.28618 | 10270 ft | 297 kts | 5° |
| 2026-05-07 14:59 | 55.21338 | 12.28881 | 9965 ft | 284 kts | 5° |
| 2026-05-07 14:59 | 55.23294 | 12.29135 | 9418 ft | 280 kts | 5° |
| 2026-05-07 15:00 | 55.25224 | 12.29391 | 8827 ft | 276 kts | 5° |
| 2026-05-07 15:00 | 55.27128 | 12.29650 | 8271 ft | 273 kts | 5° |
| 2026-05-07 15:00 | 55.29012 | 12.29916 | 7715 ft | 270 kts | 5° |
| 2026-05-07 15:00 | 55.30874 | 12.30186 | 7192 ft | 266 kts | 5° |
| 2026-05-07 15:01 | 55.32712 | 12.30462 | 6671 ft | 263 kts | 5° |
| 2026-05-07 15:01 | 55.34508 | 12.30983 | 6108 ft | 261 kts | 14° |
| 2026-05-07 15:01 | 55.36236 | 12.31795 | 5558 ft | 258 kts | 15° |
| 2026-05-07 15:01 | 55.37958 | 12.32627 | 5025 ft | 256 kts | 15° |
| 2026-05-07 15:02 | 55.39675 | 12.33459 | 4483 ft | 254 kts | 15° |
| 2026-05-07 15:02 | 55.41364 | 12.34325 | 3989 ft | 250 kts | 20° |
| 2026-05-07 15:02 | 55.42866 | 12.35620 | 3857 ft | 232 kts | 31° |
| 2026-05-07 15:02 | 55.44128 | 12.37217 | 3743 ft | 214 kts | 37° |
| 2026-05-07 15:03 | 55.45229 | 12.38840 | 3619 ft | 199 kts | 39° |
| 2026-05-07 15:03 | 55.46232 | 12.40372 | 3457 ft | 183 kts | 39° |
| 2026-05-07 15:03 | 55.47170 | 12.41809 | 3209 ft | 174 kts | 39° |
| 2026-05-07 15:03 | 55.48074 | 12.43197 | 2982 ft | 170 kts | 39° |
| 2026-05-07 15:04 | 55.48959 | 12.44556 | 2754 ft | 167 kts | 39° |
| 2026-05-07 15:04 | 55.49829 | 12.45901 | 2527 ft | 166 kts | 41° |
| 2026-05-07 15:04 | 55.50680 | 12.47206 | 2298 ft | 157 kts | 40° |
| 2026-05-07 15:04 | 55.51456 | 12.48398 | 2095 ft | 142 kts | 40° |
| 2026-05-07 15:05 | 55.52164 | 12.49485 | 1898 ft | 129 kts | 40° |
| 2026-05-07 15:05 | 55.52856 | 12.50551 | 1726 ft | 135 kts | 40° |
| 2026-05-07 15:05 | 55.53574 | 12.51639 | 1518 ft | 137 kts | 41° |
| 2026-05-07 15:05 | 55.54292 | 12.52746 | 1341 ft | 137 kts | 41° |
| 2026-05-07 15:06 | 55.55011 | 12.53856 | 1142 ft | 136 kts | 41° |
| 2026-05-07 15:06 | 55.55726 | 12.54958 | 954 ft | 136 kts | 42° |
| 2026-05-07 15:06 | 55.56437 | 12.56057 | 769 ft | 136 kts | 41° |
| 2026-05-07 15:06 | 55.57151 | 12.57146 | 584 ft | 134 kts | 41° |
| 2026-05-07 15:07 | 55.57843 | 12.58223 | 409 ft | 131 kts | 40° |
| 2026-05-07 15:07 | 55.58530 | 12.59279 | 237 ft | 130 kts | 40° |
| 2026-05-07 15:07 | 55.59203 | 12.60319 | 83 ft | 126 kts | 40° |
| 2026-05-07 15:07 | 55.59820 | 12.61270 | 23 ft | 101 kts | 42° |
| 2026-05-07 15:08 | 55.60202 | 12.61863 | 26 ft | 54 kts | 41° |
| 2026-05-07 15:08 | 55.60405 | 12.62177 | 23 ft | 26 kts | 40° |
| 2026-05-07 15:08 | 55.60559 | 12.62316 | 29 ft | 23 kts | 19° |
| 2026-05-07 15:08 | 55.60693 | 12.62367 | 27 ft | 18 kts | 11° |
| 2026-05-07 15:09 | 55.60816 | 12.62438 | 25 ft | 20 kts | 35° |
| 2026-05-07 15:09 | 55.60890 | 12.62551 | 28 ft | 14 kts | 41° |
| 2026-05-07 15:09 | 55.60968 | 12.62670 | 23 ft | 16 kts | 41° |
| 2026-05-07 15:09 | 55.61055 | 12.62806 | 26 ft | 18 kts | 41° |
| 2026-05-07 15:10 | 55.61153 | 12.62958 | 25 ft | 20 kts | 41° |
| 2026-05-07 15:10 | 55.61260 | 12.63123 | 26 ft | 21 kts | 41° |
| 2026-05-07 15:10 | 55.61374 | 12.63300 | 24 ft | 23 kts | 41° |
| 2026-05-07 15:10 | 55.61496 | 12.63488 | 23 ft | 24 kts | 41° |
| 2026-05-07 15:11 | 55.61624 | 12.63687 | 27 ft | 25 kts | 41° |
| 2026-05-07 15:11 | 55.61756 | 12.63894 | 27 ft | 23 kts | 41° |
| 2026-05-07 15:11 | 55.61856 | 12.64046 | 27 ft | 16 kts | 40° |
| 2026-05-07 15:11 | 55.61961 | 12.64145 | 23 ft | 18 kts | 25° |
| 2026-05-07 15:12 | 55.62080 | 12.64244 | 25 ft | 20 kts | 25° |
| 2026-05-07 15:12 | 55.62186 | 12.64335 | 22 ft | 18 kts | 26° |
| 2026-05-07 15:12 | 55.62282 | 12.64397 | 22 ft | 12 kts | 15° |
| 2026-05-07 15:12 | 55.62361 | 12.64435 | 24 ft | 11 kts | 15° |
| 2026-05-07 15:13 | 55.62429 | 12.64468 | 24 ft | 10 kts | 15° |
| 2026-05-07 15:13 | 55.62498 | 12.64477 | 23 ft | 9 kts | 4° |
| 2026-05-07 15:13 | 55.62536 | 12.64495 | 25 ft | 4 kts | 15° |
| 2026-05-07 15:13 | 55.62550 | 12.64502 | 23 ft | 3 kts | 16° |
| 2026-05-07 15:14 | 55.62564 | 12.64509 | 23 ft | 1 kts | 16° |